sensor_id;sensor_type;location;lat;lon;timestamp;P1;durP1;ratioP1;P2;durP2;ratioP2
20935;SDS011;10627;54.514;18.532;2022-10-22T00:03:15;42.00;;;23.00;;
20935;SDS011;10627;54.514;18.532;2022-10-22T00:08:16;41.63;;;22.87;;
20935;SDS011;10627;54.514;18.532;2022-10-22T00:13:16;48.80;;;23.70;;
20935;SDS011;10627;54.514;18.532;2022-10-22T00:18:17;47.63;;;24.40;;
20935;SDS011;10627;54.514;18.532;2022-10-22T00:23:17;46.17;;;23.30;;
20935;SDS011;10627;54.514;18.532;2022-10-22T00:28:18;43.97;;;22.73;;
20935;SDS011;10627;54.514;18.532;2022-10-22T00:33:19;48.43;;;23.03;;
20935;SDS011;10627;54.514;18.532;2022-10-22T00:38:20;45.23;;;24.03;;
20935;SDS011;10627;54.514;18.532;2022-10-22T00:43:21;49.50;;;24.13;;
20935;SDS011;10627;54.514;18.532;2022-10-22T00:48:26;46.17;;;24.90;;
20935;SDS011;10627;54.514;18.532;2022-10-22T00:58:32;50.87;;;25.50;;
20935;SDS011;10627;54.514;18.532;2022-10-22T01:03:35;50.83;;;26.20;;
20935;SDS011;10627;54.514;18.532;2022-10-22T01:08:42;47.87;;;25.27;;
20935;SDS011;10627;54.514;18.532;2022-10-22T01:29:28;50.63;;;23.93;;
20935;SDS011;10627;54.514;18.532;2022-10-22T01:34:29;48.27;;;24.70;;
20935;SDS011;10627;54.514;18.532;2022-10-22T01:39:31;49.20;;;24.03;;
20935;SDS011;10627;54.514;18.532;2022-10-22T01:44:34;46.03;;;24.27;;
20935;SDS011;10627;54.514;18.532;2022-10-22T01:54:48;49.60;;;25.27;;
20935;SDS011;10627;54.514;18.532;2022-10-22T02:04:59;52.67;;;26.83;;
20935;SDS011;10627;54.514;18.532;2022-10-22T02:10:02;50.20;;;25.93;;
20935;SDS011;10627;54.514;18.532;2022-10-22T02:15:03;47.63;;;25.90;;
20935;SDS011;10627;54.514;18.532;2022-10-22T02:20:09;45.60;;;25.97;;
20935;SDS011;10627;54.514;18.532;2022-10-22T02:25:10;48.07;;;25.50;;
20935;SDS011;10627;54.514;18.532;2022-10-22T02:30:15;49.90;;;25.80;;
20935;SDS011;10627;54.514;18.532;2022-10-22T02:35:18;45.47;;;25.00;;
20935;SDS011;10627;54.514;18.532;2022-10-22T02:40:20;44.30;;;24.07;;
20935;SDS011;10627;54.514;18.532;2022-10-22T02:45:21;46.30;;;23.53;;
20935;SDS011;10627;54.514;18.532;2022-10-22T02:50:22;51.13;;;24.60;;
20935;SDS011;10627;54.514;18.532;2022-10-22T02:55:22;47.67;;;23.70;;
20935;SDS011;10627;54.514;18.532;2022-10-22T03:00:23;63.27;;;23.77;;
20935;SDS011;10627;54.514;18.532;2022-10-22T03:05:24;41.23;;;22.50;;
20935;SDS011;10627;54.514;18.532;2022-10-22T03:10:24;39.73;;;21.87;;
20935;SDS011;10627;54.514;18.532;2022-10-22T03:15:25;45.87;;;22.93;;
20935;SDS011;10627;54.514;18.532;2022-10-22T03:20:25;41.97;;;22.37;;
20935;SDS011;10627;54.514;18.532;2022-10-22T03:25:26;43.50;;;23.07;;
20935;SDS011;10627;54.514;18.532;2022-10-22T03:30:29;42.03;;;22.63;;
20935;SDS011;10627;54.514;18.532;2022-10-22T03:35:30;41.57;;;22.27;;
20935;SDS011;10627;54.514;18.532;2022-10-22T03:40:31;40.13;;;22.80;;
20935;SDS011;10627;54.514;18.532;2022-10-22T03:45:32;42.57;;;22.50;;
20935;SDS011;10627;54.514;18.532;2022-10-22T03:50:32;42.77;;;21.87;;
20935;SDS011;10627;54.514;18.532;2022-10-22T03:55:33;45.97;;;23.50;;
20935;SDS011;10627;54.514;18.532;2022-10-22T04:00:34;46.27;;;23.83;;
20935;SDS011;10627;54.514;18.532;2022-10-22T04:05:35;47.17;;;23.03;;
20935;SDS011;10627;54.514;18.532;2022-10-22T04:10:35;46.53;;;23.87;;
20935;SDS011;10627;54.514;18.532;2022-10-22T04:15:36;45.77;;;22.47;;
20935;SDS011;10627;54.514;18.532;2022-10-22T04:20:37;43.97;;;23.00;;
20935;SDS011;10627;54.514;18.532;2022-10-22T04:25:37;45.27;;;22.67;;
20935;SDS011;10627;54.514;18.532;2022-10-22T04:30:38;44.37;;;22.97;;
20935;SDS011;10627;54.514;18.532;2022-10-22T04:35:38;47.63;;;23.43;;
20935;SDS011;10627;54.514;18.532;2022-10-22T04:40:39;44.10;;;23.90;;
20935;SDS011;10627;54.514;18.532;2022-10-22T04:45:40;41.53;;;21.73;;
20935;SDS011;10627;54.514;18.532;2022-10-22T04:50:40;46.57;;;22.00;;
20935;SDS011;10627;54.514;18.532;2022-10-22T04:55:43;51.27;;;23.53;;
20935;SDS011;10627;54.514;18.532;2022-10-22T05:00:43;46.13;;;23.47;;
20935;SDS011;10627;54.514;18.532;2022-10-22T05:05:44;41.40;;;21.87;;
20935;SDS011;10627;54.514;18.532;2022-10-22T05:10:44;47.27;;;22.47;;
20935;SDS011;10627;54.514;18.532;2022-10-22T05:15:45;40.97;;;21.33;;
20935;SDS011;10627;54.514;18.532;2022-10-22T05:20:45;41.20;;;22.07;;
20935;SDS011;10627;54.514;18.532;2022-10-22T05:25:46;43.43;;;22.23;;
20935;SDS011;10627;54.514;18.532;2022-10-22T05:30:54;48.63;;;23.37;;
20935;SDS011;10627;54.514;18.532;2022-10-22T05:35:55;54.20;;;23.27;;
20935;SDS011;10627;54.514;18.532;2022-10-22T05:41:08;48.77;;;23.47;;
20935;SDS011;10627;54.514;18.532;2022-10-22T05:46:13;43.77;;;22.83;;
20935;SDS011;10627;54.514;18.532;2022-10-22T05:51:15;48.60;;;24.27;;
20935;SDS011;10627;54.514;18.532;2022-10-22T05:56:16;46.50;;;23.10;;
20935;SDS011;10627;54.514;18.532;2022-10-22T06:01:35;44.83;;;22.33;;
20935;SDS011;10627;54.514;18.532;2022-10-22T06:06:36;38.70;;;22.03;;
20935;SDS011;10627;54.514;18.532;2022-10-22T06:11:37;45.10;;;22.03;;
20935;SDS011;10627;54.514;18.532;2022-10-22T06:16:38;42.87;;;21.73;;
20935;SDS011;10627;54.514;18.532;2022-10-22T06:21:39;45.43;;;22.47;;
20935;SDS011;10627;54.514;18.532;2022-10-22T06:26:40;42.33;;;21.90;;
20935;SDS011;10627;54.514;18.532;2022-10-22T06:31:41;36.30;;;21.20;;
20935;SDS011;10627;54.514;18.532;2022-10-22T06:36:42;45.73;;;23.37;;
20935;SDS011;10627;54.514;18.532;2022-10-22T06:41:43;45.47;;;22.43;;
20935;SDS011;10627;54.514;18.532;2022-10-22T06:46:44;40.93;;;21.87;;
20935;SDS011;10627;54.514;18.532;2022-10-22T06:51:52;37.00;;;20.77;;
20935;SDS011;10627;54.514;18.532;2022-10-22T06:56:53;40.10;;;21.23;;
20935;SDS011;10627;54.514;18.532;2022-10-22T07:01:53;43.90;;;22.87;;
20935;SDS011;10627;54.514;18.532;2022-10-22T07:06:54;49.87;;;24.13;;
20935;SDS011;10627;54.514;18.532;2022-10-22T07:11:55;46.00;;;24.20;;
20935;SDS011;10627;54.514;18.532;2022-10-22T07:16:55;51.50;;;23.33;;
20935;SDS011;10627;54.514;18.532;2022-10-22T07:21:56;44.33;;;23.30;;
20935;SDS011;10627;54.514;18.532;2022-10-22T07:26:57;43.63;;;21.33;;
20935;SDS011;10627;54.514;18.532;2022-10-22T07:31:57;47.60;;;21.83;;
20935;SDS011;10627;54.514;18.532;2022-10-22T07:36:58;44.30;;;23.23;;
20935;SDS011;10627;54.514;18.532;2022-10-22T07:41:58;46.00;;;23.27;;
20935;SDS011;10627;54.514;18.532;2022-10-22T07:46:59;45.07;;;22.00;;
20935;SDS011;10627;54.514;18.532;2022-10-22T07:52:00;41.90;;;23.13;;
20935;SDS011;10627;54.514;18.532;2022-10-22T08:52:15;49.07;;;25.17;;
20935;SDS011;10627;54.514;18.532;2022-10-22T09:13:32;45.23;;;23.47;;
20935;SDS011;10627;54.514;18.532;2022-10-22T09:18:44;48.83;;;24.13;;
20935;SDS011;10627;54.514;18.532;2022-10-22T09:24:09;46.00;;;24.77;;
20935;SDS011;10627;54.514;18.532;2022-10-22T09:29:13;44.97;;;24.73;;
20935;SDS011;10627;54.514;18.532;2022-10-22T09:39:34;39.70;;;22.90;;
20935;SDS011;10627;54.514;18.532;2022-10-22T09:44:36;45.37;;;25.00;;
20935;SDS011;10627;54.514;18.532;2022-10-22T09:49:38;42.17;;;25.43;;
20935;SDS011;10627;54.514;18.532;2022-10-22T10:16:06;58.40;;;30.20;;
20935;SDS011;10627;54.514;18.532;2022-10-22T10:26:29;56.33;;;28.47;;
20935;SDS011;10627;54.514;18.532;2022-10-22T10:58:47;48.58;;;26.67;;
20935;SDS011;10627;54.514;18.532;2022-10-22T11:29:43;61.83;;;27.10;;
20935;SDS011;10627;54.514;18.532;2022-10-22T11:34:52;52.13;;;27.67;;
20935;SDS011;10627;54.514;18.532;2022-10-22T11:39:57;54.43;;;27.10;;
20935;SDS011;10627;54.514;18.532;2022-10-22T11:50:19;53.93;;;27.97;;
20935;SDS011;10627;54.514;18.532;2022-10-22T12:06:21;68.53;;;32.97;;
20935;SDS011;10627;54.514;18.532;2022-10-22T12:11:40;66.33;;;32.93;;
20935;SDS011;10627;54.514;18.532;2022-10-22T12:16:50;57.03;;;29.00;;
20935;SDS011;10627;54.514;18.532;2022-10-22T12:21:53;66.63;;;31.33;;
20935;SDS011;10627;54.514;18.532;2022-10-22T12:26:55;57.97;;;29.93;;
20935;SDS011;10627;54.514;18.532;2022-10-22T12:32:00;56.37;;;29.70;;
20935;SDS011;10627;54.514;18.532;2022-10-22T12:37:03;54.73;;;29.67;;
20935;SDS011;10627;54.514;18.532;2022-10-22T12:42:04;53.27;;;26.37;;
20935;SDS011;10627;54.514;18.532;2022-10-22T12:47:06;56.20;;;28.50;;
20935;SDS011;10627;54.514;18.532;2022-10-22T12:52:10;58.07;;;28.90;;
20935;SDS011;10627;54.514;18.532;2022-10-22T12:57:15;54.57;;;28.93;;
20935;SDS011;10627;54.514;18.532;2022-10-22T13:02:19;57.43;;;24.90;;
20935;SDS011;10627;54.514;18.532;2022-10-22T13:07:24;55.80;;;25.37;;
20935;SDS011;10627;54.514;18.532;2022-10-22T13:12:25;64.83;;;28.00;;
20935;SDS011;10627;54.514;18.532;2022-10-22T13:17:39;48.90;;;22.33;;
20935;SDS011;10627;54.514;18.532;2022-10-22T13:22:51;57.17;;;24.23;;
20935;SDS011;10627;54.514;18.532;2022-10-22T13:33:00;54.97;;;26.17;;
20935;SDS011;10627;54.514;18.532;2022-10-22T13:38:01;62.07;;;28.07;;
20935;SDS011;10627;54.514;18.532;2022-10-22T13:43:01;62.77;;;30.33;;
20935;SDS011;10627;54.514;18.532;2022-10-22T13:48:02;51.47;;;27.43;;
20935;SDS011;10627;54.514;18.532;2022-10-22T13:53:03;77.13;;;27.03;;
20935;SDS011;10627;54.514;18.532;2022-10-22T13:58:12;64.73;;;27.53;;
20935;SDS011;10627;54.514;18.532;2022-10-22T14:03:14;75.33;;;26.17;;
20935;SDS011;10627;54.514;18.532;2022-10-22T14:08:17;71.63;;;26.03;;
20935;SDS011;10627;54.514;18.532;2022-10-22T14:18:35;72.83;;;25.87;;
20935;SDS011;10627;54.514;18.532;2022-10-22T14:23:36;73.30;;;27.60;;
20935;SDS011;10627;54.514;18.532;2022-10-22T14:28:40;70.10;;;26.50;;
20935;SDS011;10627;54.514;18.532;2022-10-22T14:33:42;70.87;;;25.63;;
20935;SDS011;10627;54.514;18.532;2022-10-22T14:38:44;70.63;;;26.13;;
20935;SDS011;10627;54.514;18.532;2022-10-22T14:43:45;73.10;;;26.50;;
20935;SDS011;10627;54.514;18.532;2022-10-22T14:48:47;76.67;;;26.53;;
20935;SDS011;10627;54.514;18.532;2022-10-22T14:53:48;70.87;;;24.50;;
20935;SDS011;10627;54.514;18.532;2022-10-22T14:58:49;65.67;;;22.93;;
20935;SDS011;10627;54.514;18.532;2022-10-22T15:09:07;67.53;;;22.80;;
20935;SDS011;10627;54.514;18.532;2022-10-22T15:14:08;56.00;;;21.87;;
20935;SDS011;10627;54.514;18.532;2022-10-22T15:19:09;58.80;;;20.77;;
20935;SDS011;10627;54.514;18.532;2022-10-22T15:24:10;57.60;;;21.73;;
20935;SDS011;10627;54.514;18.532;2022-10-22T15:29:10;56.23;;;20.67;;
20935;SDS011;10627;54.514;18.532;2022-10-22T15:34:11;53.90;;;19.40;;
20935;SDS011;10627;54.514;18.532;2022-10-22T15:39:12;48.10;;;18.53;;
20935;SDS011;10627;54.514;18.532;2022-10-22T15:44:14;48.00;;;19.57;;
20935;SDS011;10627;54.514;18.532;2022-10-22T15:49:15;51.20;;;18.97;;
20935;SDS011;10627;54.514;18.532;2022-10-22T15:54:17;48.37;;;17.93;;
20935;SDS011;10627;54.514;18.532;2022-10-22T15:59:20;47.67;;;19.47;;
20935;SDS011;10627;54.514;18.532;2022-10-22T16:04:20;47.00;;;19.13;;
20935;SDS011;10627;54.514;18.532;2022-10-22T16:09:22;48.37;;;18.47;;
20935;SDS011;10627;54.514;18.532;2022-10-22T16:14:23;49.10;;;18.97;;
20935;SDS011;10627;54.514;18.532;2022-10-22T16:19:24;56.73;;;20.03;;
20935;SDS011;10627;54.514;18.532;2022-10-22T16:24:25;47.90;;;18.00;;
20935;SDS011;10627;54.514;18.532;2022-10-22T16:29:25;49.67;;;18.50;;
20935;SDS011;10627;54.514;18.532;2022-10-22T16:34:26;51.63;;;17.33;;
20935;SDS011;10627;54.514;18.532;2022-10-22T16:39:27;48.70;;;17.60;;
20935;SDS011;10627;54.514;18.532;2022-10-22T16:44:28;48.10;;;18.83;;
20935;SDS011;10627;54.514;18.532;2022-10-22T16:54:46;46.13;;;19.27;;
20935;SDS011;10627;54.514;18.532;2022-10-22T16:59:46;47.63;;;16.33;;
20935;SDS011;10627;54.514;18.532;2022-10-22T17:04:48;42.33;;;16.73;;
20935;SDS011;10627;54.514;18.532;2022-10-22T17:09:48;47.40;;;18.43;;
20935;SDS011;10627;54.514;18.532;2022-10-22T17:14:49;36.87;;;15.80;;
20935;SDS011;10627;54.514;18.532;2022-10-22T17:19:50;42.87;;;17.03;;
20935;SDS011;10627;54.514;18.532;2022-10-22T17:25:04;44.93;;;15.03;;
20935;SDS011;10627;54.514;18.532;2022-10-22T17:30:05;41.13;;;15.83;;
20935;SDS011;10627;54.514;18.532;2022-10-22T17:35:07;38.17;;;15.50;;
20935;SDS011;10627;54.514;18.532;2022-10-22T17:40:08;38.43;;;15.03;;
20935;SDS011;10627;54.514;18.532;2022-10-22T17:45:09;34.57;;;15.27;;
20935;SDS011;10627;54.514;18.532;2022-10-22T17:50:09;35.73;;;14.30;;
20935;SDS011;10627;54.514;18.532;2022-10-22T17:55:11;31.70;;;13.03;;
20935;SDS011;10627;54.514;18.532;2022-10-22T18:00:13;29.43;;;12.40;;
20935;SDS011;10627;54.514;18.532;2022-10-22T18:05:15;25.70;;;11.33;;
20935;SDS011;10627;54.514;18.532;2022-10-22T18:10:15;27.20;;;12.73;;
20935;SDS011;10627;54.514;18.532;2022-10-22T18:15:16;24.93;;;12.37;;
20935;SDS011;10627;54.514;18.532;2022-10-22T18:20:17;26.33;;;12.53;;
20935;SDS011;10627;54.514;18.532;2022-10-22T18:25:17;24.67;;;10.77;;
20935;SDS011;10627;54.514;18.532;2022-10-22T18:30:18;26.87;;;12.63;;
20935;SDS011;10627;54.514;18.532;2022-10-22T18:35:18;24.40;;;10.43;;
20935;SDS011;10627;54.514;18.532;2022-10-22T18:40:19;28.83;;;11.03;;
20935;SDS011;10627;54.514;18.532;2022-10-22T18:45:20;32.50;;;11.47;;
20935;SDS011;10627;54.514;18.532;2022-10-22T18:50:20;26.77;;;10.83;;
20935;SDS011;10627;54.514;18.532;2022-10-22T18:55:21;28.30;;;10.43;;
20935;SDS011;10627;54.514;18.532;2022-10-22T19:00:21;27.60;;;9.50;;
20935;SDS011;10627;54.514;18.532;2022-10-22T19:05:22;18.50;;;8.60;;
20935;SDS011;10627;54.514;18.532;2022-10-22T19:10:23;19.57;;;8.53;;
20935;SDS011;10627;54.514;18.532;2022-10-22T19:15:23;20.03;;;9.03;;
20935;SDS011;10627;54.514;18.532;2022-10-22T19:20:24;22.73;;;9.67;;
20935;SDS011;10627;54.514;18.532;2022-10-22T19:25:24;16.40;;;8.40;;
20935;SDS011;10627;54.514;18.532;2022-10-22T19:30:25;23.03;;;10.63;;
20935;SDS011;10627;54.514;18.532;2022-10-22T19:35:25;22.00;;;9.07;;
20935;SDS011;10627;54.514;18.532;2022-10-22T19:40:26;32.43;;;12.40;;
20935;SDS011;10627;54.514;18.532;2022-10-22T19:45:27;27.53;;;9.90;;
20935;SDS011;10627;54.514;18.532;2022-10-22T19:50:28;25.00;;;10.30;;
20935;SDS011;10627;54.514;18.532;2022-10-22T19:55:28;25.03;;;9.67;;
20935;SDS011;10627;54.514;18.532;2022-10-22T20:00:29;24.83;;;9.70;;
20935;SDS011;10627;54.514;18.532;2022-10-22T20:05:31;29.17;;;10.47;;
20935;SDS011;10627;54.514;18.532;2022-10-22T20:10:31;24.07;;;10.20;;
20935;SDS011;10627;54.514;18.532;2022-10-22T20:37:03;25.10;;;9.83;;
20935;SDS011;10627;54.514;18.532;2022-10-22T20:42:04;21.30;;;10.10;;
20935;SDS011;10627;54.514;18.532;2022-10-22T20:47:05;22.00;;;8.83;;
20935;SDS011;10627;54.514;18.532;2022-10-22T20:52:07;30.47;;;13.90;;
20935;SDS011;10627;54.514;18.532;2022-10-22T21:18:15;41.00;;;15.50;;
20935;SDS011;10627;54.514;18.532;2022-10-22T21:28:39;42.83;;;14.97;;
20935;SDS011;10627;54.514;18.532;2022-10-22T21:39:05;43.07;;;14.87;;
20935;SDS011;10627;54.514;18.532;2022-10-22T21:44:07;41.80;;;14.87;;
20935;SDS011;10627;54.514;18.532;2022-10-22T21:49:07;38.70;;;15.60;;
20935;SDS011;10627;54.514;18.532;2022-10-22T21:54:08;45.03;;;16.57;;
20935;SDS011;10627;54.514;18.532;2022-10-22T21:59:09;39.03;;;16.07;;
20935;SDS011;10627;54.514;18.532;2022-10-22T22:04:10;40.63;;;15.57;;
20935;SDS011;10627;54.514;18.532;2022-10-22T22:09:10;42.50;;;15.47;;
20935;SDS011;10627;54.514;18.532;2022-10-22T22:14:11;37.13;;;14.20;;
20935;SDS011;10627;54.514;18.532;2022-10-22T22:19:12;40.33;;;14.23;;
20935;SDS011;10627;54.514;18.532;2022-10-22T22:24:13;35.83;;;14.10;;
20935;SDS011;10627;54.514;18.532;2022-10-22T22:29:14;33.93;;;13.50;;
20935;SDS011;10627;54.514;18.532;2022-10-22T22:34:15;32.23;;;14.13;;
20935;SDS011;10627;54.514;18.532;2022-10-22T22:39:19;31.27;;;12.83;;
20935;SDS011;10627;54.514;18.532;2022-10-22T22:44:22;24.60;;;11.03;;
20935;SDS011;10627;54.514;18.532;2022-10-22T22:49:23;30.23;;;13.23;;
20935;SDS011;10627;54.514;18.532;2022-10-22T22:54:23;29.33;;;12.27;;
20935;SDS011;10627;54.514;18.532;2022-10-22T22:59:24;31.13;;;11.87;;
20935;SDS011;10627;54.514;18.532;2022-10-22T23:04:24;25.07;;;11.10;;
20935;SDS011;10627;54.514;18.532;2022-10-22T23:09:25;23.80;;;11.23;;
20935;SDS011;10627;54.514;18.532;2022-10-22T23:14:26;27.00;;;11.60;;
20935;SDS011;10627;54.514;18.532;2022-10-22T23:19:27;24.67;;;11.90;;
20935;SDS011;10627;54.514;18.532;2022-10-22T23:29:45;27.23;;;11.53;;
20935;SDS011;10627;54.514;18.532;2022-10-22T23:34:46;23.77;;;10.30;;
20935;SDS011;10627;54.514;18.532;2022-10-22T23:39:47;20.80;;;9.53;;
20935;SDS011;10627;54.514;18.532;2022-10-22T23:44:47;23.13;;;9.80;;
20935;SDS011;10627;54.514;18.532;2022-10-22T23:49:48;23.83;;;10.10;;
20935;SDS011;10627;54.514;18.532;2022-10-22T23:54:49;18.40;;;8.83;;
